首页
METAR-TAF:

METAR-TAF

机场 :

桂林, 中华人民共和国

桂林兩江國際機場

纬度: 25-20N, 经度: 110-18E, 海拔: 166米

当前天气观测

该预报发布于21分钟前的03:00 UTC
风速4节,风向多变
温度 12°C
湿度 67%
气压 1021 hPa
能見度: 2800
散云层高于3300英尺
阴天层高于6600英尺

METAR: ZGKL 200300Z VRB02MPS 2800 HZ SCT033 OVC066 12/06 Q1021 NOSIG

时间: 11:21 (03:21 UTC)

预报

该预报发布于8小时和16分钟前的19:05 UTC
预报有效从20日的 00点(UTC)到 20日的 24点(UTC)
风速6节,风向东北
能見度: 3500
多云层高于5000英尺

TAF: ZGKL 191905Z 2000/2024 05003MPS 3500 HZ BKN050 TX17/2007Z TN09/2023Z

超过4000个机场的气象观测和天气预报(METAR&TAF报告)。

可查询的气象台以黄色和红色小点在地图上表示。

将鼠标移到小点上方,可查看气象台名称。

然后点击查看天气观测和预报。

如需切换地图:点击带黑十字的绿色按钮放大地图;点击带横线的绿色按钮缩小地图;或者点击绿色箭头查看邻近地区的地图。


METAR-TAF: